Time;durP1;ratioP1;P1;durP2;ratioP2;P2;SDS_P1;SDS_P2;PMS_P1;PMS_P2;Temp;Humidity;BMP_temperature;BMP_pressure;BME280_temperature;BME280_humidity;BME280_pressure;Samples;Min_cycle;Max_cycle;Signal;HPM_P1;HPM_P2
2021/12/30 00:01:07;;;;;;;3.20;3.00;;;;;;;5.63;100.00;95913.16;5098968;28;20886;-77
2021/12/30 00:03:34;;;;;;;4.03;3.73;;;;;;;5.56;100.00;95909.41;5106681;28;20453;-77
2021/12/30 00:06:01;;;;;;;4.10;3.27;;;;;;;5.59;100.00;95906.19;5103925;27;20950;-77
2021/12/30 00:08:28;;;;;;;3.37;3.07;;;;;;;5.44;100.00;95909.22;5101028;27;20474;-77
2021/12/30 00:10:55;;;;;;;4.93;4.37;;;;;;;5.36;100.00;95920.47;5112727;27;20441;-77
2021/12/30 00:13:22;;;;;;;7.10;4.77;;;;;;;5.27;100.00;95923.03;5126105;27;20430;-77
2021/12/30 00:15:49;;;;;;;4.40;4.03;;;;;;;5.09;100.00;95916.19;5095312;28;20466;-77
2021/12/30 00:18:16;;;;;;;6.90;5.23;;;;;;;5.16;100.00;95940.88;5106593;27;20454;-77
2021/12/30 00:20:43;;;;;;;7.20;6.13;;;;;;;5.08;100.00;95930.34;5097812;28;20844;-77
2021/12/30 00:23:10;;;;;;;15.50;7.20;;;;;;;4.86;100.00;95915.44;5117307;27;20798;-77
2021/12/30 00:25:40;;;;;;;18.13;7.20;;;;;;;4.99;100.00;95944.16;5106090;28;20438;-77
2021/12/30 00:28:10;;;;;;;9.90;6.60;;;;;;;4.99;100.00;95944.16;5106366;27;20461;-74
2021/12/30 00:30:37;;;;;;;7.00;6.23;;;;;;;4.98;100.00;95942.63;5089255;28;20450;-74
2021/12/30 00:33:04;;;;;;;7.57;6.83;;;;;;;5.02;100.00;95950.66;5124506;27;20466;-74
2021/12/30 00:35:32;;;;;;;5.80;5.30;;;;;;;4.89;100.00;95938.41;5083502;28;20834;-77
2021/12/30 00:37:59;;;;;;;6.80;6.20;;;;;;;5.03;100.00;95970.53;5126259;27;20506;-77
2021/12/30 00:40:26;;;;;;;7.40;6.03;;;;;;;4.98;100.00;95968.03;5096526;28;20446;-77
2021/12/30 00:42:53;;;;;;;7.07;6.30;;;;;;;4.89;100.00;95961.97;5096756;28;20521;-76
2021/12/30 00:45:20;;;;;;;7.20;6.37;;;;;;;4.88;100.00;95963.03;5110086;28;20531;-74
2021/12/30 00:47:47;;;;;;;10.47;6.00;;;;;;;4.95;100.00;95979.13;5086552;28;20480;-74
2021/12/30 00:50:14;;;;;;;8.33;6.17;;;;;;;5.01;100.00;95988.41;5105130;28;20476;-74
2021/12/30 00:52:41;;;;;;;6.70;6.00;;;;;;;4.96;100.00;95978.06;5087522;28;20503;-74
2021/12/30 00:55:08;;;;;;;7.20;5.67;;;;;;;4.69;100.00;95944.91;5082540;28;20506;-74
2021/12/30 00:57:35;;;;;;;7.30;6.57;;;;;;;5.00;100.00;95994.72;5102783;28;20521;-74
2021/12/30 01:00:06;;;;;;;6.80;5.83;;;;;;;4.76;100.00;95958.34;5058546;28;20450;-74
2021/12/30 01:02:33;;;;;;;6.10;5.27;;;;;;;4.97;100.00;95990.84;5112270;28;20457;-74
2021/12/30 01:05:00;;;;;;;7.30;5.80;;;;;;;4.88;100.00;95979.53;5102380;28;20433;-75
2021/12/30 01:07:27;;;;;;;6.30;5.70;;;;;;;4.97;100.00;95984.84;5095093;28;20465;-75
2021/12/30 01:09:53;;;;;;;6.60;6.00;;;;;;;4.87;100.00;95982.44;5093193;28;20473;-75
2021/12/30 01:12:20;;;;;;;7.07;5.97;;;;;;;4.75;100.00;95968.03;5084535;28;20465;-74
2021/12/30 01:14:48;;;;;;;7.00;6.30;;;;;;;5.05;100.00;96008.47;5100282;28;20466;-75
2021/12/30 01:17:25;;;;;;;4.80;4.40;;;;;;;5.09;100.00;96005.25;5105754;28;20507;-75
2021/12/30 01:19:52;;;;;;;5.37;4.87;;;;;;;4.83;100.00;95945.63;5094577;28;20946;-75
2021/12/30 01:22:27;;;;;;;3.53;3.23;;;;;;;5.14;100.00;96002.50;5096245;28;20434;-74
2021/12/30 01:24:55;;;;;;;5.33;4.37;;;;;;;5.23;100.00;95998.09;5122638;28;20441;-74
2021/12/30 01:27:22;;;;;;;4.53;4.13;;;;;;;5.27;100.00;96004.28;5098218;28;20462;-75
2021/12/30 01:29:50;;;;;;;5.57;4.13;;;;;;;5.11;100.00;95996.03;5106110;28;20471;-74
2021/12/30 01:32:17;;;;;;;8.87;4.13;;;;;;;5.11;100.00;96021.44;5120315;27;20484;-74
2021/12/30 01:34:44;;;;;;;3.73;3.37;;;;;;;5.09;100.00;96010.50;5106886;27;20437;-74
2021/12/30 01:37:12;;;;;;;5.50;3.40;;;;;;;5.21;100.00;96019.38;5100069;27;20497;-75
2021/12/30 01:39:40;;;;;;;4.90;3.53;;;;;;;5.30;100.00;96022.03;5104797;27;20438;-74
2021/12/30 01:42:09;;;;;;;3.67;2.87;;;;;;;5.39;100.00;96017.63;5127530;27;20442;-75
2021/12/30 01:44:37;;;;;;;3.73;3.40;;;;;;;5.47;100.00;96027.34;5105253;27;20498;-75
2021/12/30 01:47:04;;;;;;;2.90;2.70;;;;;;;5.44;100.00;96032.44;5099896;28;20466;-74
2021/12/30 01:49:31;;;;;;;2.73;2.53;;;;;;;5.44;100.00;96019.31;5085208;28;20511;-75
2021/12/30 01:51:59;;;;;;;1.53;1.33;;;;;;;5.84;100.00;96018.28;5089842;27;20445;-74
2021/12/30 01:54:27;;;;;;;1.00;0.90;;;;;;;6.28;100.00;96040.25;5103540;28;20447;-74
2021/12/30 01:56:58;;;;;;;2.07;1.20;;;;;;;6.47;100.00;96053.88;5123578;27;20523;-74
2021/12/30 01:59:25;;;;;;;1.27;0.70;;;;;;;6.52;100.00;96045.81;5125881;27;20509;-74
2021/12/30 02:01:56;;;;;;;1.73;0.70;;;;;;;6.73;100.00;96050.50;5106087;27;20446;-74
2021/12/30 02:04:29;;;;;;;1.23;0.80;;;;;;;6.80;100.00;96056.84;5110665;27;20939;-75
2021/12/30 02:06:57;;;;;;;0.70;0.70;;;;;;;6.86;100.00;96067.22;5103646;27;20438;-74
2021/12/30 02:09:25;;;;;;;1.00;0.90;;;;;;;6.92;100.00;96079.88;5124663;27;20809;-75
2021/12/30 02:11:54;;;;;;;0.70;0.70;;;;;;;6.90;100.00;96071.53;5108663;27;20450;-75
2021/12/30 02:14:20;;;;;;;0.87;0.87;;;;;;;7.04;100.00;96082.66;5107308;27;20491;-75
2021/12/30 02:16:47;;;;;;;1.30;1.00;;;;;;;6.93;100.00;96065.66;5112069;27;20496;-74
2021/12/30 02:19:14;;;;;;;0.93;0.93;;;;;;;7.07;100.00;96089.94;5112450;27;20441;-76
2021/12/30 02:21:41;;;;;;;1.27;0.90;;;;;;;7.00;100.00;96065.22;5098293;27;20541;-75
2021/12/30 02:24:08;;;;;;;1.17;1.07;;;;;;;7.08;100.00;96067.84;5112131;27;20441;-75
2021/12/30 02:26:35;;;;;;;0.83;0.80;;;;;;;7.16;100.00;96073.41;5104273;27;20913;-75
2021/12/30 02:29:02;;;;;;;1.10;0.90;;;;;;;7.25;100.00;96089.94;5096945;28;20466;-75
2021/12/30 02:31:30;;;;;;;1.10;1.00;;;;;;;7.30;100.00;96089.78;5106747;27;20450;-75
2021/12/30 02:33:57;;;;;;;1.43;1.33;;;;;;;7.24;100.00;96076.03;5121439;27;20443;-75
2021/12/30 02:36:33;;;;;;;1.23;1.13;;;;;;;7.27;100.00;96069.38;5082176;27;20462;-74
2021/12/30 02:39:04;;;;;;;1.30;1.20;;;;;;;7.37;100.00;96084.84;5095764;27;20453;-75
2021/12/30 02:41:34;;;;;;;1.27;1.17;;;;;;;7.23;100.00;96076.34;5122784;27;20420;-75
2021/12/30 02:44:03;;;;;;;2.20;2.00;;;;;;;7.42;100.00;96087.31;5091347;28;20488;-75
2021/12/30 02:46:30;;;;;;;3.30;3.00;;;;;;;7.42;100.00;96105.72;5101052;28;20474;-75
2021/12/30 02:48:59;;;;;;;2.30;2.20;;;;;;;7.57;100.00;96109.72;5107684;28;20469;-75
2021/12/30 02:51:26;;;;;;;3.57;2.50;;;;;;;7.65;100.00;96114.97;5098888;27;20431;-75
2021/12/30 02:53:53;;;;;;;3.40;3.10;;;;;;;7.60;100.00;96119.59;5097643;27;20469;-75
2021/12/30 02:56:21;;;;;;;3.33;3.13;;;;;;;7.69;100.00;96134.31;5122784;27;20466;-75
2021/12/30 02:58:48;;;;;;;5.47;3.10;;;;;;;7.62;100.00;96125.34;5098214;28;20458;-75
2021/12/30 03:01:22;;;;;;;3.50;3.20;;;;;;;7.82;100.00;96153.63;5106454;27;20465;-75
2021/12/30 03:03:49;;;;;;;3.63;3.33;;;;;;;7.95;100.00;96149.28;5102724;27;20438;-75
2021/12/30 03:06:16;;;;;;;3.93;3.37;;;;;;;8.08;100.00;96156.22;5103888;27;20840;-75
2021/12/30 03:08:47;;;;;;;5.83;3.40;;;;;;;8.04;100.00;96134.25;5100645;28;20569;-75
2021/12/30 03:11:15;;;;;;;4.10;3.70;;;;;;;8.16;100.00;96147.53;5096803;27;20567;-75
2021/12/30 03:13:44;;;;;;;4.63;3.90;;;;;;;8.16;100.00;96133.59;5083467;27;20437;-75
2021/12/30 03:16:17;;;;;;;7.07;3.77;;;;;;;8.17;100.00;96122.75;5119493;27;20461;-75
2021/12/30 03:18:46;;;;;;;5.03;3.83;;;;;;;8.26;100.00;96120.84;5087214;28;20471;-75
2021/12/30 03:21:15;;;;;;;6.60;3.17;;;;;;;8.47;100.00;96141.25;5091626;27;20443;-75
2021/12/30 03:23:42;;;;;;;4.67;3.70;;;;;;;8.41;100.00;96142.50;5101467;28;20443;-75
2021/12/30 03:26:10;;;;;;;5.10;2.93;;;;;;;8.55;100.00;96162.31;5103783;27;21005;-75
2021/12/30 03:28:40;;;;;;;3.83;3.53;;;;;;;8.61;100.00;96176.06;5099031;28;20884;-75
2021/12/30 03:31:12;;;;;;;4.83;3.77;;;;;;;8.67;100.00;96182.69;5106127;27;20433;-76
2021/12/30 03:33:40;;;;;;;3.63;3.33;;;;;;;8.70;100.00;96215.56;5107163;27;20437;-75
2021/12/30 03:36:07;;;;;;;4.10;3.50;;;;;;;8.47;100.00;96181.53;5104241;27;20529;-76
2021/12/30 03:38:38;;;;;;;5.53;3.00;;;;;;;8.73;100.00;96194.63;5120115;27;20453;-75
2021/12/30 03:41:06;;;;;;;4.23;3.83;;;;;;;8.72;100.00;96210.75;5122624;27;20823;-75
2021/12/30 03:43:34;;;;;;;4.30;3.60;;;;;;;8.66;100.00;96193.56;5086937;27;20533;-75
2021/12/30 03:46:03;;;;;;;4.13;3.73;;;;;;;8.78;100.00;96202.34;5092517;27;20429;-75
2021/12/30 03:48:34;;;;;;;4.83;3.40;;;;;;;8.70;100.00;96205.03;5120302;27;20465;-75
2021/12/30 03:51:06;;;;;;;3.80;3.40;;;;;;;8.64;100.00;96201.00;5104352;27;20421;-75
2021/12/30 03:53:38;;;;;;;4.37;3.20;;;;;;;8.78;100.00;96215.53;5102938;28;20441;-75
2021/12/30 03:56:06;;;;;;;7.73;3.67;;;;;;;8.82;100.00;96216.44;5092494;27;20988;-75
2021/12/30 03:58:33;;;;;;;3.80;3.07;;;;;;;8.80;100.00;96225.75;5083842;27;20518;-75
2021/12/30 04:00:59;;;;;;;7.40;4.37;;;;;;;8.79;100.00;96230.25;5121887;27;20787;-75
2021/12/30 04:03:27;;;;;;;5.10;3.17;;;;;;;8.74;100.00;96238.34;5086944;27;20950;-75
2021/12/30 04:05:53;;;;;;;2.90;2.47;;;;;;;8.57;100.00;96222.59;5105121;28;20495;-76
2021/12/30 04:08:20;;;;;;;2.60;2.40;;;;;;;8.72;100.00;96229.97;5097751;28;20511;-75
2021/12/30 04:10:47;;;;;;;4.60;3.33;;;;;;;8.55;100.00;96212.38;5098407;28;20961;-75
2021/12/30 04:13:14;;;;;;;2.83;2.63;;;;;;;8.66;100.00;96238.34;5090697;27;20533;-75
2021/12/30 04:15:41;;;;;;;4.43;2.47;;;;;;;8.58;100.00;96237.31;5097052;28;20478;-75
2021/12/30 04:18:07;;;;;;;3.80;2.37;;;;;;;8.59;100.00;96226.47;5101810;28;20506;-75
2021/12/30 04:20:34;;;;;;;3.50;3.07;;;;;;;8.74;100.00;96246.25;5091512;28;20430;-75
2021/12/30 04:23:01;;;;;;;3.23;2.93;;;;;;;8.69;100.00;96249.06;5093465;27;20475;-75
2021/12/30 04:25:28;;;;;;;3.33;3.03;;;;;;;8.69;100.00;96256.97;5076068;28;20443;-75
2021/12/30 04:27:55;;;;;;;5.20;2.50;;;;;;;8.73;100.00;96263.16;5119860;27;20494;-75
2021/12/30 04:30:21;;;;;;;4.80;3.07;;;;;;;8.61;100.00;96243.81;5101042;27;20433;-75
2021/12/30 04:32:48;;;;;;;2.73;2.20;;;;;;;8.55;100.00;96240.59;5104444;28;20492;-75
2021/12/30 04:35:15;;;;;;;5.20;2.90;;;;;;;8.47;100.00;96231.59;5106083;28;20443;-75
2021/12/30 04:37:42;;;;;;;4.57;3.47;;;;;;;8.51;100.00;96268.63;5103383;27;20842;-75
2021/12/30 04:40:10;;;;;;;7.93;6.53;;;;;;;8.57;100.00;96288.47;5106058;28;20871;-75
2021/12/30 04:42:37;;;;;;;5.00;3.53;;;;;;;8.35;100.00;96254.41;5094742;28;20499;-76
2021/12/30 04:45:04;;;;;;;3.63;2.97;;;;;;;8.51;100.00;96284.44;5107027;28;20945;-75
2021/12/30 04:47:31;;;;;;;8.27;3.23;;;;;;;8.57;100.00;96293.75;5121267;27;20441;-75
2021/12/30 04:49:58;;;;;;;3.30;2.57;;;;;;;8.41;100.00;96275.00;5098752;28;20446;-75
2021/12/30 04:52:25;;;;;;;4.47;2.70;;;;;;;8.48;100.00;96277.94;5102098;28;20526;-75
2021/12/30 04:54:53;;;;;;;4.07;2.20;;;;;;;8.53;100.00;96298.84;5097553;28;20484;-75
2021/12/30 04:57:20;;;;;;;4.33;2.63;;;;;;;8.59;100.00;96302.09;5092697;28;20518;-75
2021/12/30 04:59:46;;;;;;;2.93;2.73;;;;;;;8.53;100.00;96301.47;5100217;28;20487;-75
2021/12/30 05:02:13;;;;;;;2.73;2.27;;;;;;;8.55;100.00;96306.47;5085523;28;20471;-75
2021/12/30 05:04:40;;;;;;;5.97;2.40;;;;;;;8.62;100.00;96325.19;5104926;28;20437;-75
2021/12/30 05:07:07;;;;;;;6.37;2.30;;;;;;;8.55;100.00;96323.03;5089717;28;20466;-75
2021/12/30 05:09:34;;;;;;;3.53;2.40;;;;;;;8.57;100.00;96334.03;5109424;27;20998;-75
2021/12/30 05:12:01;;;;;;;10.23;2.80;;;;;;;8.48;100.00;96317.47;5110948;27;20458;-75
2021/12/30 05:14:28;;;;;;;2.90;2.50;;;;;;;8.45;100.00;96318.09;5106964;27;20434;-75
2021/12/30 05:16:56;;;;;;;7.80;2.10;;;;;;;8.58;100.00;96342.72;5109885;27;20462;-75
2021/12/30 05:19:22;;;;;;;3.17;2.67;;;;;;;8.32;100.00;96323.50;5107229;27;20437;-75
2021/12/30 05:21:49;;;;;;;3.53;2.50;;;;;;;8.46;100.00;96363.66;5096491;27;20529;-75
2021/12/30 05:24:17;;;;;;;4.03;2.30;;;;;;;8.50;100.00;96364.56;5124634;27;20466;-75
2021/12/30 05:26:43;;;;;;;4.40;1.90;;;;;;;8.38;100.00;96341.47;5128337;27;20464;-75
2021/12/30 05:29:10;;;;;;;3.63;2.73;;;;;;;8.43;100.00;96356.38;5087883;28;20494;-75
2021/12/30 05:31:37;;;;;;;2.80;1.97;;;;;;;8.51;100.00;96352.94;5123659;27;20867;-75
2021/12/30 05:34:04;;;;;;;2.47;2.23;;;;;;;8.58;100.00;96361.94;5105619;27;20537;-75
2021/12/30 05:36:30;;;;;;;2.60;2.13;;;;;;;8.53;100.00;96345.50;5132410;27;20917;-75
2021/12/30 05:38:57;;;;;;;4.47;2.23;;;;;;;8.56;100.00;96366.75;5104398;27;20453;-75
2021/12/30 05:41:26;;;;;;;4.03;1.80;;;;;;;8.44;100.00;96358.69;5084664;27;20449;-75
2021/12/30 05:43:53;;;;;;;2.27;1.73;;;;;;;8.54;100.00;96391.84;5109332;28;20473;-75
2021/12/30 05:46:20;;;;;;;3.40;2.07;;;;;;;8.42;100.00;96403.03;5103960;27;20858;-75
2021/12/30 05:48:47;;;;;;;4.67;3.10;;;;;;;8.50;100.00;96410.16;5094775;27;20889;-75
2021/12/30 05:51:13;;;;;;;3.57;2.10;;;;;;;8.48;100.00;96420.22;5127455;27;20868;-75
2021/12/30 05:53:40;;;;;;;2.93;1.63;;;;;;;8.30;100.00;96419.41;5110280;28;20470;-75
2021/12/30 05:56:06;;;;;;;5.40;2.03;;;;;;;8.00;100.00;96402.63;5102911;27;20496;-75
2021/12/30 05:58:33;;;;;;;4.40;2.30;;;;;;;8.21;100.00;96423.88;5101180;28;20450;-75
2021/12/30 06:01:00;;;;;;;2.80;1.67;;;;;;;8.12;100.00;96436.25;5101955;27;20442;-75
2021/12/30 06:03:27;;;;;;;3.30;2.00;;;;;;;8.13;100.00;96448.34;5107414;28;21022;-75
2021/12/30 06:05:54;;;;;;;2.90;2.20;;;;;;;7.68;100.00;96390.63;5098535;28;20441;-75
2021/12/30 06:08:20;;;;;;;3.13;1.90;;;;;;;8.14;100.00;96454.38;5093745;28;20501;-75
2021/12/30 06:10:47;;;;;;;4.57;1.90;;;;;;;8.03;100.00;96448.66;5097440;28;20473;-75
2021/12/30 06:13:14;;;;;;;4.73;2.47;;;;;;;8.17;100.00;96454.56;5080778;28;20484;-75
2021/12/30 06:15:41;;;;;;;4.43;1.60;;;;;;;8.16;100.00;96437.22;5107788;28;21100;-75
2021/12/30 06:18:07;;;;;;;1.90;1.80;;;;;;;8.30;100.00;96437.84;5122749;28;20445;-75
2021/12/30 06:20:34;;;;;;;2.43;1.63;;;;;;;8.37;100.00;96439.28;5091598;28;21024;-75
2021/12/30 06:23:01;;;;;;;2.93;2.33;;;;;;;8.23;100.00;96418.31;5116818;28;20496;-75
2021/12/30 06:25:28;;;;;;;3.77;1.37;;;;;;;8.20;100.00;96414.44;5109015;28;20475;-75
2021/12/30 06:27:55;;;;;;;3.17;1.40;;;;;;;8.26;100.00;96426.38;5125022;28;20445;-75
2021/12/30 06:30:23;;;;;;;10.97;2.43;;;;;;;8.29;100.00;96438.16;5091000;28;20961;-75
2021/12/30 06:32:50;;;;;;;6.60;1.90;;;;;;;8.16;100.00;96425.91;5096540;28;20438;-75
2021/12/30 06:35:16;;;;;;;3.93;1.70;;;;;;;8.14;100.00;96428.81;5102183;28;20480;-75
2021/12/30 06:37:43;;;;;;;5.63;1.73;;;;;;;8.18;100.00;96435.03;5130411;28;20469;-75
2021/12/30 06:40:12;;;;;;;7.13;2.13;;;;;;;8.04;100.00;96405.44;5127648;28;20937;-75
2021/12/30 06:42:41;;;;;;;7.70;1.60;;;;;;;8.19;100.00;96428.69;5109084;28;20490;-75
2021/12/30 06:45:08;;;;;;;7.03;2.00;;;;;;;8.25;100.00;96445.88;5101651;28;20920;-75
2021/12/30 06:47:41;;;;;;;10.20;2.20;;;;;;;8.28;100.00;96447.94;5116515;28;20442;-75
2021/12/30 06:50:11;;;;;;;7.00;2.23;;;;;;;8.23;100.00;96453.31;5083466;28;20470;-75
2021/12/30 06:52:38;;;;;;;4.90;2.10;;;;;;;8.26;100.00;96459.81;5128506;28;20422;-75
2021/12/30 06:55:06;;;;;;;4.50;1.67;;;;;;;8.09;100.00;96439.50;5101428;28;20510;-75
2021/12/30 06:57:33;;;;;;;3.07;1.53;;;;;;;8.17;100.00;96457.19;5081723;28;20509;-75
2021/12/30 07:00:01;;;;;;;2.83;2.40;;;;;;;8.20;100.00;96464.47;5101919;28;20461;-75
2021/12/30 07:02:28;;;;;;;5.10;1.93;;;;;;;8.08;100.00;96466.16;5056405;28;1163004;-75
2021/12/30 07:04:55;;;;;;;3.50;3.20;;;;;;;8.10;100.00;96466.63;5108562;27;20198;-75
2021/12/30 07:07:21;;;;;;;4.77;1.90;;;;;;;8.08;100.00;96463.53;5116410;27;20499;-75
2021/12/30 07:09:48;;;;;;;7.27;1.90;;;;;;;8.16;100.00;96479.34;5084014;27;20504;-75
2021/12/30 07:12:15;;;;;;;3.30;1.97;;;;;;;8.09;100.00;96476.38;5110231;27;20445;-75
2021/12/30 07:14:42;;;;;;;3.93;1.83;;;;;;;8.14;100.00;96496.50;5127857;27;20521;-75
2021/12/30 07:17:09;;;;;;;2.67;1.50;;;;;;;8.02;100.00;96475.28;5102477;27;20465;-75
2021/12/30 07:19:35;;;;;;;6.60;3.10;;;;;;;8.11;100.00;96490.00;5100942;27;20472;-75
2021/12/30 07:22:02;;;;;;;3.40;1.50;;;;;;;8.23;100.00;96503.38;5109045;28;20454;-75
2021/12/30 07:24:29;;;;;;;2.53;1.60;;;;;;;8.19;100.00;96493.75;5100134;27;20473;-75
2021/12/30 07:26:56;;;;;;;5.40;2.27;;;;;;;8.11;100.00;96494.50;5090873;27;20780;-75
2021/12/30 07:29:22;;;;;;;5.33;3.10;;;;;;;8.07;100.00;96491.72;5088193;28;20806;-75
2021/12/30 07:31:50;;;;;;;4.27;2.00;;;;;;;8.12;100.00;96496.81;5119416;27;20520;-75
2021/12/30 07:34:16;;;;;;;3.33;2.03;;;;;;;8.22;100.00;96525.53;5123515;27;20465;-76
2021/12/30 07:36:43;;;;;;;4.77;2.20;;;;;;;8.27;100.00;96529.88;5083893;28;21037;-75
2021/12/30 07:39:10;;;;;;;7.10;2.67;;;;;;;8.17;100.00;96507.22;5089848;28;20527;-75
2021/12/30 07:41:37;;;;;;;3.97;2.53;;;;;;;8.14;100.00;96528.91;5086381;27;20478;-75
2021/12/30 07:44:04;;;;;;;2.63;2.23;;;;;;;7.87;100.00;96524.59;5124452;27;20439;-76
2021/12/30 07:46:31;;;;;;;3.30;2.93;;;;;;;7.65;100.00;96538.59;5127948;27;20429;-76
2021/12/30 07:48:58;;;;;;;6.10;2.43;;;;;;;7.48;100.00;96527.19;5096517;27;20453;-76
2021/12/30 07:51:24;;;;;;;5.73;2.70;;;;;;;7.49;100.00;96544.56;5111972;27;20462;-75
2021/12/30 07:53:51;;;;;;;7.23;3.70;;;;;;;7.32;100.00;96518.91;5096882;28;20450;-76
2021/12/30 07:56:18;;;;;;;6.43;3.40;;;;;;;7.32;100.00;96538.09;5077460;27;20472;-76
2021/12/30 07:58:44;;;;;;;9.73;3.43;;;;;;;7.25;100.00;96532.47;5091048;28;20453;-75
2021/12/30 08:01:13;;;;;;;11.60;3.20;;;;;;;7.21;100.00;96528.09;5105620;28;20440;-76
2021/12/30 08:03:40;;;;;;;8.23;3.93;;;;;;;7.22;100.00;96533.09;5090820;27;20445;-75
2021/12/30 08:06:07;;;;;;;3.93;3.53;;;;;;;7.46;100.00;96553.03;5103807;27;20900;-76
2021/12/30 08:08:34;;;;;;;6.00;2.97;;;;;;;7.49;100.00;96558.47;5098494;28;20553;-75
2021/12/30 08:11:04;;;;;;;5.20;4.00;;;;;;;7.37;100.00;96540.63;5098090;28;20450;-76
2021/12/30 08:13:31;;;;;;;3.53;2.93;;;;;;;7.33;100.00;96537.00;5089534;27;20438;-76
2021/12/30 08:15:57;;;;;;;9.73;4.70;;;;;;;7.46;100.00;96542.50;5101181;27;20515;-76
2021/12/30 08:18:24;;;;;;;35.20;19.50;;;;;;;7.40;100.00;96534.75;5114372;27;20513;-76
2021/12/30 08:20:52;;;;;;;36.70;19.93;;;;;;;7.44;100.00;96542.81;5122949;27;20442;-75
2021/12/30 08:23:19;;;;;;;36.63;18.33;;;;;;;7.55;100.00;96541.47;5105863;28;20466;-76
2021/12/30 08:25:49;;;;;;;41.97;21.20;;;;;;;7.58;100.00;96534.84;5123437;27;20438;-75
2021/12/30 08:28:17;;;;;;;43.10;23.97;;;;;;;7.61;100.00;96529.78;5122417;27;20809;-76
2021/12/30 08:30:45;;;;;;;37.00;20.17;;;;;;;7.50;100.00;96546.09;5110366;27;20440;-76
2021/12/30 08:33:12;;;;;;;22.50;12.80;;;;;;;7.44;100.00;96553.31;5081151;27;20814;-76
2021/12/30 08:35:39;;;;;;;17.37;7.53;;;;;;;7.32;100.00;96543.34;5092803;27;20815;-76
2021/12/30 08:38:05;;;;;;;11.13;8.50;;;;;;;7.34;100.00;96551.72;5117758;27;20501;-76
2021/12/30 08:40:32;;;;;;;18.87;9.30;;;;;;;7.38;100.00;96544.03;5095294;28;21287;-76
2021/12/30 08:42:59;;;;;;;21.97;10.60;;;;;;;7.33;100.00;96539.63;5122180;27;20430;-76
2021/12/30 08:45:26;;;;;;;15.17;11.07;;;;;;;7.53;100.00;96527.09;5085714;28;20438;-76
2021/12/30 08:47:53;;;;;;;15.20;8.90;;;;;;;7.77;100.00;96540.69;5103276;28;20498;-76
2021/12/30 08:50:20;;;;;;;13.43;9.10;;;;;;;7.78;100.00;96533.56;5104666;27;20426;-76
2021/12/30 08:52:47;;;;;;;13.53;11.57;;;;;;;7.81;100.00;96520.56;5120803;28;20925;-76
2021/12/30 08:55:16;;;;;;;10.83;8.07;;;;;;;7.87;100.00;96523.84;5104070;28;20499;-76
2021/12/30 08:57:43;;;;;;;9.10;7.70;;;;;;;7.87;100.00;96537.78;5095748;28;20897;-76
2021/12/30 09:00:17;;;;;;;7.70;5.73;;;;;;;7.91;100.00;96543.22;5106543;28;20438;-76
2021/12/30 09:02:44;;;;;;;9.87;4.70;;;;;;;7.74;100.00;96536.00;5096055;28;20454;-76
2021/12/30 09:05:11;;;;;;;5.53;4.20;;;;;;;7.61;100.00;96535.03;5074772;28;20947;-76
2021/12/30 09:07:38;;;;;;;12.20;6.00;;;;;;;7.62;100.00;96555.00;5096928;28;21366;-76
2021/12/30 09:10:07;;;;;;;11.97;6.30;;;;;;;7.48;100.00;96533.25;5118999;28;20426;-75
2021/12/30 09:12:34;;;;;;;33.33;9.43;;;;;;;7.48;100.00;96538.53;5102517;28;20454;-76
2021/12/30 09:15:19;;;;;;;8.00;6.03;;;;;;;7.42;100.00;96521.28;5095216;28;20811;-75
2021/12/30 09:17:47;;;;;;;9.70;6.90;;;;;;;7.47;100.00;96515.13;5074418;28;20520;-76
2021/12/30 09:20:15;;;;;;;9.23;6.80;;;;;;;7.63;100.00;96529.47;5093266;28;20478;-76
2021/12/30 09:22:42;;;;;;;7.13;6.27;;;;;;;7.67;100.00;96525.91;5090130;28;21017;-76
2021/12/30 09:25:10;;;;;;;8.83;5.40;;;;;;;7.78;100.00;96509.88;5093110;28;20589;-76
2021/12/30 09:27:39;;;;;;;9.27;6.10;;;;;;;7.91;100.00;96535.31;5102759;28;20451;-76
2021/12/30 09:30:10;;;;;;;11.50;7.20;;;;;;;7.79;100.00;96535.13;5088479;28;20500;-76
2021/12/30 09:32:39;;;;;;;30.63;10.07;;;;;;;7.66;100.00;96536.75;5073929;28;20961;-76
2021/12/30 09:35:08;;;;;;;41.33;10.67;;;;;;;7.67;100.00;96536.44;5110370;28;20455;-76
2021/12/30 09:37:35;;;;;;;13.57;8.73;;;;;;;7.69;100.00;96531.66;5095312;28;20545;-76
2021/12/30 09:40:05;;;;;;;11.87;8.83;;;;;;;7.80;100.00;96534.03;5088702;28;20485;-76
2021/12/30 09:42:34;;;;;;;11.37;6.33;;;;;;;7.86;100.00;96527.53;5091079;28;20431;-76
2021/12/30 09:45:01;;;;;;;13.37;6.20;;;;;;;7.81;100.00;96517.16;5104998;28;20488;-76
2021/12/30 09:47:27;;;;;;;7.93;7.20;;;;;;;7.96;100.00;96519.38;5104237;28;20455;-76
2021/12/30 09:49:54;;;;;;;15.00;10.00;;;;;;;8.34;100.00;96527.59;5102237;28;20496;-76
2021/12/30 09:52:21;;;;;;;11.40;10.30;;;;;;;8.31;100.00;96501.84;5075957;28;20537;-76
2021/12/30 09:54:48;;;;;;;31.30;26.93;;;;;;;8.51;100.00;96511.03;5088415;28;20474;-76
2021/12/30 09:57:14;;;;;;;18.87;15.40;;;;;;;8.63;100.00;96513.09;5109004;28;20480;-76
2021/12/30 09:59:41;;;;;;;11.60;10.43;;;;;;;8.57;100.00;96489.53;5096547;28;20434;-76
2021/12/30 10:02:08;;;;;;;10.00;8.43;;;;;;;8.84;100.00;96514.03;5096244;28;20450;-76
2021/12/30 10:04:35;;;;;;;7.53;5.30;;;;;;;9.00;100.00;96522.25;5099654;27;20853;-76
2021/12/30 10:07:16;;;;;;;6.63;4.70;;;;;;;9.06;100.00;96521.00;5135350;27;20429;-76
2021/12/30 10:10:03;;;;;;;5.83;3.40;;;;;;;9.10;100.00;96527.22;5116617;27;20855;-76
2021/12/30 10:12:44;;;;;;;4.70;3.80;;;;;;;9.12;100.00;96522.41;5098539;27;20931;-76
2021/12/30 10:15:11;;;;;;;4.67;4.23;;;;;;;9.19;100.00;96533.25;5112674;27;20944;-76
2021/12/30 10:17:38;;;;;;;2.00;1.53;;;;;;;9.23;100.00;96528.94;5088756;27;20477;-75
2021/12/30 10:20:28;;;;;;;2.07;1.87;;;;;;;9.26;100.00;96527.53;5099928;27;20434;-75
2021/12/30 10:23:07;;;;;;;1.57;1.30;;;;;;;9.30;100.00;96531.06;5125241;27;20955;-75
2021/12/30 10:25:37;;;;;;;2.80;2.23;;;;;;;9.22;100.00;96508.91;5103329;27;20444;-75
2021/12/30 10:28:31;;;;;;;1.53;1.43;;;;;;;9.37;100.00;96521.63;5109915;27;20744;-75
2021/12/30 10:31:10;;;;;;;8.40;7.60;;;;;;;9.41;100.00;96513.84;5099170;27;20493;-75
2021/12/30 10:33:59;;;;;;;1.90;1.80;;;;;;;9.43;100.00;96501.88;5103298;27;20932;-75
2021/12/30 10:36:37;;;;;;;3.80;3.43;;;;;;;9.46;100.00;96509.16;5094305;27;20972;-75
2021/12/30 10:39:22;;;;;;;4.07;3.77;;;;;;;9.51;100.00;96515.38;5079382;27;20469;-75
2021/12/30 10:41:52;;;;;;;2.27;2.07;;;;;;;9.42;100.00;96487.13;5120808;27;20438;-75
2021/12/30 10:44:20;;;;;;;1.93;1.37;;;;;;;9.52;100.00;96514.28;5093264;27;20448;-75
2021/12/30 10:46:48;;;;;;;1.60;1.40;;;;;;;9.58;100.00;96513.00;5100093;27;20525;-75
2021/12/30 10:49:26;;;;;;;55.77;35.40;;;;;;;9.53;100.00;96507.91;5104975;27;20465;-75
2021/12/30 10:51:57;;;;;;;1.77;1.63;;;;;;;9.56;100.00;96507.28;5122715;27;20460;-72
2021/12/30 10:54:30;;;;;;;2.23;2.00;;;;;;;9.68;100.00;96512.69;5084967;27;20446;-71
2021/12/30 10:56:57;;;;;;;2.47;2.00;;;;;;;9.68;100.00;96504.75;5104522;27;20446;-71
2021/12/30 10:59:36;;;;;;;2.50;2.00;;;;;;;9.71;100.00;96506.78;5097354;27;20498;-71
2021/12/30 11:02:15;;;;;;;3.17;2.73;;;;;;;9.82;100.00;96525.69;5123717;27;20476;-71
2021/12/30 11:04:42;;;;;;;5.93;4.10;;;;;;;9.88;100.00;96519.13;5092821;28;20437;-71
2021/12/30 11:07:13;;;;;;;2.40;2.00;;;;;;;9.91;100.00;96511.38;5125664;27;20438;-72
2021/12/30 11:10:00;;;;;;;1.40;1.30;;;;;;;9.98;100.00;96509.00;5106566;27;20426;-75
2021/12/30 11:12:33;;;;;;;2.13;1.13;;;;;;;10.03;100.00;96506.19;5071514;28;20492;-76
2021/12/30 11:15:05;;;;;;;1.13;1.03;;;;;;;10.01;100.00;96508.34;5108265;27;20862;-75
2021/12/30 11:17:34;;;;;;;0.90;0.80;;;;;;;9.91;100.00;96490.25;5087360;27;20485;-75
2021/12/30 11:20:07;;;;;;;2.20;2.00;;;;;;;9.97;100.00;96483.69;5108198;27;20461;-75
2021/12/30 11:22:36;;;;;;;1.00;0.90;;;;;;;10.20;100.00;96509.84;5101506;27;20826;-75
2021/12/30 11:25:06;;;;;;;1.20;1.10;;;;;;;10.23;100.00;96515.28;5117795;27;20478;-75
2021/12/30 11:27:34;;;;;;;1.10;1.00;;;;;;;10.22;100.00;96519.03;5104166;27;21225;-75
2021/12/30 11:30:07;;;;;;;2.17;1.97;;;;;;;10.28;100.00;96519.59;5099702;27;20450;-75
2021/12/30 11:32:35;;;;;;;1.10;1.00;;;;;;;10.32;100.00;96517.91;5105184;28;20941;-76
2021/12/30 11:35:04;;;;;;;1.97;1.40;;;;;;;10.36;100.00;96514.28;5126553;27;20517;-75
2021/12/30 11:37:31;;;;;;;2.90;2.07;;;;;;;10.41;100.00;96517.84;5098132;28;20515;-75